sensor_id;sensor_type;location;lat;lon;timestamp;P1;durP1;ratioP1;P2;durP2;ratioP2
20525;SDS011;10421;49.142;9.232;2023-11-21T00:00:21;10.20;;;1.93;;
20525;SDS011;10421;49.142;9.232;2023-11-21T00:02:49;3.13;;;0.90;;
20525;SDS011;10421;49.142;9.232;2023-11-21T00:05:15;10.80;;;2.03;;
20525;SDS011;10421;49.142;9.232;2023-11-21T00:07:42;5.50;;;1.13;;
20525;SDS011;10421;49.142;9.232;2023-11-21T00:10:10;4.33;;;1.00;;
20525;SDS011;10421;49.142;9.232;2023-11-21T00:12:39;6.47;;;1.43;;
20525;SDS011;10421;49.142;9.232;2023-11-21T00:15:07;5.07;;;0.90;;
20525;SDS011;10421;49.142;9.232;2023-11-21T00:17:35;13.43;;;2.40;;
20525;SDS011;10421;49.142;9.232;2023-11-21T00:20:05;6.17;;;1.30;;
20525;SDS011;10421;49.142;9.232;2023-11-21T00:22:33;10.10;;;2.00;;
20525;SDS011;10421;49.142;9.232;2023-11-21T00:24:59;7.17;;;2.00;;
20525;SDS011;10421;49.142;9.232;2023-11-21T00:27:26;8.30;;;1.50;;
20525;SDS011;10421;49.142;9.232;2023-11-21T00:29:53;9.57;;;2.00;;
20525;SDS011;10421;49.142;9.232;2023-11-21T00:32:20;6.30;;;1.57;;
20525;SDS011;10421;49.142;9.232;2023-11-21T00:34:46;4.97;;;1.30;;
20525;SDS011;10421;49.142;9.232;2023-11-21T00:37:14;9.77;;;2.07;;
20525;SDS011;10421;49.142;9.232;2023-11-21T00:39:41;9.60;;;1.80;;
20525;SDS011;10421;49.142;9.232;2023-11-21T00:42:08;2.63;;;1.00;;
20525;SDS011;10421;49.142;9.232;2023-11-21T00:44:37;6.00;;;1.30;;
20525;SDS011;10421;49.142;9.232;2023-11-21T00:47:04;6.53;;;1.47;;
20525;SDS011;10421;49.142;9.232;2023-11-21T00:49:30;3.13;;;0.90;;
20525;SDS011;10421;49.142;9.232;2023-11-21T00:51:57;7.00;;;1.53;;
20525;SDS011;10421;49.142;9.232;2023-11-21T00:54:26;7.23;;;1.63;;
20525;SDS011;10421;49.142;9.232;2023-11-21T00:56:53;11.90;;;2.40;;
20525;SDS011;10421;49.142;9.232;2023-11-21T00:59:20;9.03;;;1.83;;
20525;SDS011;10421;49.142;9.232;2023-11-21T01:01:48;3.93;;;1.00;;
20525;SDS011;10421;49.142;9.232;2023-11-21T01:04:14;4.90;;;1.20;;
20525;SDS011;10421;49.142;9.232;2023-11-21T01:06:41;5.03;;;1.30;;
20525;SDS011;10421;49.142;9.232;2023-11-21T01:09:08;5.90;;;1.07;;
20525;SDS011;10421;49.142;9.232;2023-11-21T01:11:36;3.67;;;0.90;;
20525;SDS011;10421;49.142;9.232;2023-11-21T01:14:04;5.40;;;1.40;;
20525;SDS011;10421;49.142;9.232;2023-11-21T01:16:31;4.03;;;1.10;;
20525;SDS011;10421;49.142;9.232;2023-11-21T01:18:58;4.43;;;1.73;;
20525;SDS011;10421;49.142;9.232;2023-11-21T01:21:25;6.30;;;1.37;;
20525;SDS011;10421;49.142;9.232;2023-11-21T01:23:53;9.20;;;1.93;;
20525;SDS011;10421;49.142;9.232;2023-11-21T01:26:19;9.40;;;1.73;;
20525;SDS011;10421;49.142;9.232;2023-11-21T01:28:48;3.73;;;1.20;;
20525;SDS011;10421;49.142;9.232;2023-11-21T01:31:15;9.60;;;1.57;;
20525;SDS011;10421;49.142;9.232;2023-11-21T01:33:41;7.13;;;1.53;;
20525;SDS011;10421;49.142;9.232;2023-11-21T01:36:09;3.73;;;1.20;;
20525;SDS011;10421;49.142;9.232;2023-11-21T01:38:36;9.70;;;2.00;;
20525;SDS011;10421;49.142;9.232;2023-11-21T01:41:03;6.90;;;1.33;;
20525;SDS011;10421;49.142;9.232;2023-11-21T01:43:31;5.30;;;1.17;;
20525;SDS011;10421;49.142;9.232;2023-11-21T01:45:59;4.57;;;1.10;;
20525;SDS011;10421;49.142;9.232;2023-11-21T01:48:26;3.43;;;1.10;;
20525;SDS011;10421;49.142;9.232;2023-11-21T01:50:54;3.07;;;1.10;;
20525;SDS011;10421;49.142;9.232;2023-11-21T01:53:21;7.47;;;1.67;;
20525;SDS011;10421;49.142;9.232;2023-11-21T01:55:47;6.00;;;1.30;;
20525;SDS011;10421;49.142;9.232;2023-11-21T01:58:14;8.60;;;1.87;;
20525;SDS011;10421;49.142;9.232;2023-11-21T02:00:42;5.87;;;1.33;;
20525;SDS011;10421;49.142;9.232;2023-11-21T02:03:10;1.83;;;0.67;;
20525;SDS011;10421;49.142;9.232;2023-11-21T02:05:37;5.47;;;1.10;;
20525;SDS011;10421;49.142;9.232;2023-11-21T02:08:04;4.73;;;1.43;;
20525;SDS011;10421;49.142;9.232;2023-11-21T02:10:31;3.90;;;1.03;;
20525;SDS011;10421;49.142;9.232;2023-11-21T02:12:58;7.57;;;1.60;;
20525;SDS011;10421;49.142;9.232;2023-11-21T02:15:27;3.27;;;0.90;;
20525;SDS011;10421;49.142;9.232;2023-11-21T02:17:55;2.80;;;0.90;;
20525;SDS011;10421;49.142;9.232;2023-11-21T02:20:24;4.80;;;1.17;;
20525;SDS011;10421;49.142;9.232;2023-11-21T02:22:55;4.30;;;1.03;;
20525;SDS011;10421;49.142;9.232;2023-11-21T02:25:24;5.87;;;1.20;;
20525;SDS011;10421;49.142;9.232;2023-11-21T02:27:51;7.33;;;1.73;;
20525;SDS011;10421;49.142;9.232;2023-11-21T02:30:19;4.73;;;1.30;;
20525;SDS011;10421;49.142;9.232;2023-11-21T02:32:46;2.43;;;0.90;;
20525;SDS011;10421;49.142;9.232;2023-11-21T02:35:13;8.33;;;1.83;;
20525;SDS011;10421;49.142;9.232;2023-11-21T02:37:40;6.63;;;1.20;;
20525;SDS011;10421;49.142;9.232;2023-11-21T02:40:10;5.03;;;1.23;;
20525;SDS011;10421;49.142;9.232;2023-11-21T02:42:38;5.90;;;1.20;;
20525;SDS011;10421;49.142;9.232;2023-11-21T02:45:06;9.93;;;1.73;;
20525;SDS011;10421;49.142;9.232;2023-11-21T02:47:33;5.10;;;1.30;;
20525;SDS011;10421;49.142;9.232;2023-11-21T02:50:00;4.03;;;1.00;;
20525;SDS011;10421;49.142;9.232;2023-11-21T02:52:27;2.97;;;0.90;;
20525;SDS011;10421;49.142;9.232;2023-11-21T02:54:54;5.70;;;1.40;;
20525;SDS011;10421;49.142;9.232;2023-11-21T02:57:22;5.10;;;1.10;;
20525;SDS011;10421;49.142;9.232;2023-11-21T02:59:49;3.37;;;1.00;;
20525;SDS011;10421;49.142;9.232;2023-11-21T03:02:15;11.00;;;1.90;;
20525;SDS011;10421;49.142;9.232;2023-11-21T03:04:42;6.63;;;1.37;;
20525;SDS011;10421;49.142;9.232;2023-11-21T03:07:09;5.60;;;1.37;;
20525;SDS011;10421;49.142;9.232;2023-11-21T03:09:36;9.43;;;1.83;;
20525;SDS011;10421;49.142;9.232;2023-11-21T03:12:03;4.40;;;1.07;;
20525;SDS011;10421;49.142;9.232;2023-11-21T03:14:31;4.60;;;1.10;;
20525;SDS011;10421;49.142;9.232;2023-11-21T03:16:58;3.80;;;1.00;;
20525;SDS011;10421;49.142;9.232;2023-11-21T03:19:25;5.03;;;1.00;;
20525;SDS011;10421;49.142;9.232;2023-11-21T03:21:51;3.20;;;0.87;;
20525;SDS011;10421;49.142;9.232;2023-11-21T03:24:19;9.70;;;2.30;;
20525;SDS011;10421;49.142;9.232;2023-11-21T03:26:47;2.00;;;0.73;;
20525;SDS011;10421;49.142;9.232;2023-11-21T03:29:14;3.97;;;1.03;;
20525;SDS011;10421;49.142;9.232;2023-11-21T03:31:42;8.03;;;1.73;;
20525;SDS011;10421;49.142;9.232;2023-11-21T03:34:14;5.27;;;1.43;;
20525;SDS011;10421;49.142;9.232;2023-11-21T03:36:43;10.33;;;1.50;;
20525;SDS011;10421;49.142;9.232;2023-11-21T03:39:11;4.00;;;1.00;;
20525;SDS011;10421;49.142;9.232;2023-11-21T03:41:38;9.70;;;2.03;;
20525;SDS011;10421;49.142;9.232;2023-11-21T03:44:04;5.70;;;1.20;;
20525;SDS011;10421;49.142;9.232;2023-11-21T03:46:31;4.77;;;1.80;;
20525;SDS011;10421;49.142;9.232;2023-11-21T03:48:59;5.90;;;1.33;;
20525;SDS011;10421;49.142;9.232;2023-11-21T03:51:26;3.23;;;1.00;;
20525;SDS011;10421;49.142;9.232;2023-11-21T03:53:53;10.80;;;1.93;;
20525;SDS011;10421;49.142;9.232;2023-11-21T03:56:19;7.60;;;1.83;;
20525;SDS011;10421;49.142;9.232;2023-11-21T03:58:46;2.30;;;0.67;;
20525;SDS011;10421;49.142;9.232;2023-11-21T04:01:18;8.07;;;1.50;;
20525;SDS011;10421;49.142;9.232;2023-11-21T04:03:46;5.67;;;1.30;;
20525;SDS011;10421;49.142;9.232;2023-11-21T04:06:14;9.03;;;1.70;;
20525;SDS011;10421;49.142;9.232;2023-11-21T04:08:42;4.10;;;1.17;;
20525;SDS011;10421;49.142;9.232;2023-11-21T04:11:09;2.90;;;0.80;;
20525;SDS011;10421;49.142;9.232;2023-11-21T04:13:36;5.90;;;1.30;;
20525;SDS011;10421;49.142;9.232;2023-11-21T04:16:04;5.37;;;1.10;;
20525;SDS011;10421;49.142;9.232;2023-11-21T04:18:31;2.50;;;0.90;;
20525;SDS011;10421;49.142;9.232;2023-11-21T04:20:59;5.03;;;1.23;;
20525;SDS011;10421;49.142;9.232;2023-11-21T04:23:28;6.70;;;1.07;;
20525;SDS011;10421;49.142;9.232;2023-11-21T04:25:55;1.93;;;0.83;;
20525;SDS011;10421;49.142;9.232;2023-11-21T04:28:22;6.23;;;1.40;;
20525;SDS011;10421;49.142;9.232;2023-11-21T04:30:49;3.80;;;1.03;;
20525;SDS011;10421;49.142;9.232;2023-11-21T04:33:16;12.57;;;2.40;;
20525;SDS011;10421;49.142;9.232;2023-11-21T04:35:42;5.23;;;1.20;;
20525;SDS011;10421;49.142;9.232;2023-11-21T04:38:10;5.43;;;1.40;;
20525;SDS011;10421;49.142;9.232;2023-11-21T04:40:38;6.50;;;1.40;;
20525;SDS011;10421;49.142;9.232;2023-11-21T04:43:03;4.90;;;1.30;;
20525;SDS011;10421;49.142;9.232;2023-11-21T04:45:30;7.20;;;1.57;;
20525;SDS011;10421;49.142;9.232;2023-11-21T04:47:57;3.70;;;1.10;;
20525;SDS011;10421;49.142;9.232;2023-11-21T04:50:24;4.73;;;1.30;;
20525;SDS011;10421;49.142;9.232;2023-11-21T04:52:52;4.07;;;1.20;;
20525;SDS011;10421;49.142;9.232;2023-11-21T04:55:18;13.07;;;2.30;;
20525;SDS011;10421;49.142;9.232;2023-11-21T04:57:47;6.63;;;1.90;;
20525;SDS011;10421;49.142;9.232;2023-11-21T05:00:13;5.93;;;1.30;;
20525;SDS011;10421;49.142;9.232;2023-11-21T05:02:41;5.40;;;1.33;;
20525;SDS011;10421;49.142;9.232;2023-11-21T05:05:09;4.77;;;1.33;;
20525;SDS011;10421;49.142;9.232;2023-11-21T05:07:36;8.33;;;1.80;;
20525;SDS011;10421;49.142;9.232;2023-11-21T05:10:04;5.60;;;1.30;;
20525;SDS011;10421;49.142;9.232;2023-11-21T05:12:33;8.20;;;1.87;;
20525;SDS011;10421;49.142;9.232;2023-11-21T05:15:03;5.00;;;1.50;;
20525;SDS011;10421;49.142;9.232;2023-11-21T05:17:34;3.77;;;1.00;;
20525;SDS011;10421;49.142;9.232;2023-11-21T05:20:01;8.70;;;1.70;;
20525;SDS011;10421;49.142;9.232;2023-11-21T05:22:33;8.13;;;1.93;;
20525;SDS011;10421;49.142;9.232;2023-11-21T05:25:00;4.63;;;1.47;;
20525;SDS011;10421;49.142;9.232;2023-11-21T05:27:28;5.20;;;1.40;;
20525;SDS011;10421;49.142;9.232;2023-11-21T05:29:54;5.03;;;1.13;;
20525;SDS011;10421;49.142;9.232;2023-11-21T05:32:22;10.43;;;2.40;;
20525;SDS011;10421;49.142;9.232;2023-11-21T05:34:49;3.77;;;1.07;;
20525;SDS011;10421;49.142;9.232;2023-11-21T05:37:16;11.97;;;2.50;;
20525;SDS011;10421;49.142;9.232;2023-11-21T05:39:43;10.47;;;2.30;;
20525;SDS011;10421;49.142;9.232;2023-11-21T05:42:10;7.47;;;1.80;;
20525;SDS011;10421;49.142;9.232;2023-11-21T05:44:36;3.07;;;1.20;;
20525;SDS011;10421;49.142;9.232;2023-11-21T05:47:04;6.50;;;1.70;;
20525;SDS011;10421;49.142;9.232;2023-11-21T05:49:33;2.70;;;1.23;;
20525;SDS011;10421;49.142;9.232;2023-11-21T05:52:00;8.13;;;1.57;;
20525;SDS011;10421;49.142;9.232;2023-11-21T05:54:27;5.67;;;1.63;;
20525;SDS011;10421;49.142;9.232;2023-11-21T05:56:54;8.80;;;2.03;;
20525;SDS011;10421;49.142;9.232;2023-11-21T05:59:20;5.87;;;1.97;;
20525;SDS011;10421;49.142;9.232;2023-11-21T06:01:47;7.67;;;1.93;;
20525;SDS011;10421;49.142;9.232;2023-11-21T06:04:14;11.43;;;2.60;;
20525;SDS011;10421;49.142;9.232;2023-11-21T06:06:42;8.40;;;2.03;;
20525;SDS011;10421;49.142;9.232;2023-11-21T06:09:09;9.87;;;2.40;;
20525;SDS011;10421;49.142;9.232;2023-11-21T06:11:37;9.30;;;2.30;;
20525;SDS011;10421;49.142;9.232;2023-11-21T06:14:04;7.00;;;1.97;;
20525;SDS011;10421;49.142;9.232;2023-11-21T06:16:33;11.97;;;2.73;;
20525;SDS011;10421;49.142;9.232;2023-11-21T06:18:59;11.67;;;2.50;;
20525;SDS011;10421;49.142;9.232;2023-11-21T06:21:26;6.00;;;2.07;;
20525;SDS011;10421;49.142;9.232;2023-11-21T06:23:55;4.13;;;1.60;;
20525;SDS011;10421;49.142;9.232;2023-11-21T06:26:22;9.00;;;2.40;;
20525;SDS011;10421;49.142;9.232;2023-11-21T06:28:49;14.60;;;3.10;;
20525;SDS011;10421;49.142;9.232;2023-11-21T06:31:17;17.87;;;3.23;;
20525;SDS011;10421;49.142;9.232;2023-11-21T06:33:44;19.37;;;3.67;;
20525;SDS011;10421;49.142;9.232;2023-11-21T06:36:11;10.93;;;2.90;;
20525;SDS011;10421;49.142;9.232;2023-11-21T06:38:38;7.93;;;2.80;;
20525;SDS011;10421;49.142;9.232;2023-11-21T06:41:06;14.17;;;3.40;;
20525;SDS011;10421;49.142;9.232;2023-11-21T06:43:33;17.00;;;4.20;;
20525;SDS011;10421;49.142;9.232;2023-11-21T06:46:01;12.17;;;2.63;;
20525;SDS011;10421;49.142;9.232;2023-11-21T06:48:27;6.07;;;2.10;;
20525;SDS011;10421;49.142;9.232;2023-11-21T06:50:55;6.10;;;2.27;;
20525;SDS011;10421;49.142;9.232;2023-11-21T06:53:21;10.10;;;2.33;;
20525;SDS011;10421;49.142;9.232;2023-11-21T06:55:48;17.50;;;3.73;;
20525;SDS011;10421;49.142;9.232;2023-11-21T06:58:16;6.57;;;2.27;;
20525;SDS011;10421;49.142;9.232;2023-11-21T07:00:43;12.23;;;3.17;;
20525;SDS011;10421;49.142;9.232;2023-11-21T07:03:11;14.67;;;3.70;;
20525;SDS011;10421;49.142;9.232;2023-11-21T07:05:38;14.83;;;3.60;;
20525;SDS011;10421;49.142;9.232;2023-11-21T07:08:05;15.60;;;3.67;;
20525;SDS011;10421;49.142;9.232;2023-11-21T07:10:32;7.03;;;2.53;;
20525;SDS011;10421;49.142;9.232;2023-11-21T07:13:00;9.63;;;2.70;;
20525;SDS011;10421;49.142;9.232;2023-11-21T07:15:28;4.63;;;2.33;;
20525;SDS011;10421;49.142;9.232;2023-11-21T07:17:54;12.37;;;3.37;;
20525;SDS011;10421;49.142;9.232;2023-11-21T07:20:21;10.90;;;3.43;;
20525;SDS011;10421;49.142;9.232;2023-11-21T07:22:48;11.40;;;3.53;;
20525;SDS011;10421;49.142;9.232;2023-11-21T07:25:15;11.97;;;3.30;;
20525;SDS011;10421;49.142;9.232;2023-11-21T07:27:42;13.80;;;3.57;;
20525;SDS011;10421;49.142;9.232;2023-11-21T07:30:09;8.87;;;3.17;;
20525;SDS011;10421;49.142;9.232;2023-11-21T07:32:39;11.40;;;3.50;;
20525;SDS011;10421;49.142;9.232;2023-11-21T07:35:06;17.93;;;3.90;;
20525;SDS011;10421;49.142;9.232;2023-11-21T07:37:34;10.60;;;3.30;;
20525;SDS011;10421;49.142;9.232;2023-11-21T07:40:00;11.87;;;3.50;;
20525;SDS011;10421;49.142;9.232;2023-11-21T07:42:27;9.20;;;2.90;;
20525;SDS011;10421;49.142;9.232;2023-11-21T07:44:54;8.30;;;2.97;;
20525;SDS011;10421;49.142;9.232;2023-11-21T07:47:21;4.97;;;2.70;;
20525;SDS011;10421;49.142;9.232;2023-11-21T07:49:53;5.50;;;2.50;;
20525;SDS011;10421;49.142;9.232;2023-11-21T07:52:21;7.97;;;3.20;;
20525;SDS011;10421;49.142;9.232;2023-11-21T07:54:47;11.33;;;3.23;;
20525;SDS011;10421;49.142;9.232;2023-11-21T07:57:14;7.03;;;3.27;;
20525;SDS011;10421;49.142;9.232;2023-11-21T07:59:41;7.87;;;2.80;;
20525;SDS011;10421;49.142;9.232;2023-11-21T08:02:07;5.93;;;2.70;;
20525;SDS011;10421;49.142;9.232;2023-11-21T08:04:34;8.17;;;3.40;;
20525;SDS011;10421;49.142;9.232;2023-11-21T08:07:03;8.23;;;2.73;;
20525;SDS011;10421;49.142;9.232;2023-11-21T08:09:29;9.43;;;3.73;;
20525;SDS011;10421;49.142;9.232;2023-11-21T08:11:56;15.97;;;4.90;;
20525;SDS011;10421;49.142;9.232;2023-11-21T08:14:23;10.33;;;3.23;;
20525;SDS011;10421;49.142;9.232;2023-11-21T08:16:50;11.20;;;4.27;;
20525;SDS011;10421;49.142;9.232;2023-11-21T08:19:17;12.90;;;3.97;;
20525;SDS011;10421;49.142;9.232;2023-11-21T08:21:44;8.30;;;3.10;;
20525;SDS011;10421;49.142;9.232;2023-11-21T08:24:12;7.67;;;3.50;;
20525;SDS011;10421;49.142;9.232;2023-11-21T08:26:39;8.03;;;3.50;;
20525;SDS011;10421;49.142;9.232;2023-11-21T08:29:05;8.80;;;3.70;;
20525;SDS011;10421;49.142;9.232;2023-11-21T08:31:33;13.40;;;3.83;;
20525;SDS011;10421;49.142;9.232;2023-11-21T08:34:00;11.00;;;4.03;;
20525;SDS011;10421;49.142;9.232;2023-11-21T08:36:28;7.63;;;3.10;;
20525;SDS011;10421;49.142;9.232;2023-11-21T08:38:56;16.53;;;5.10;;
20525;SDS011;10421;49.142;9.232;2023-11-21T08:41:24;8.13;;;3.33;;
20525;SDS011;10421;49.142;9.232;2023-11-21T08:43:53;15.13;;;4.63;;
20525;SDS011;10421;49.142;9.232;2023-11-21T08:46:20;9.83;;;3.90;;
20525;SDS011;10421;49.142;9.232;2023-11-21T08:48:47;9.43;;;3.43;;
20525;SDS011;10421;49.142;9.232;2023-11-21T08:51:17;10.03;;;3.80;;
20525;SDS011;10421;49.142;9.232;2023-11-21T08:53:44;9.00;;;3.83;;
20525;SDS011;10421;49.142;9.232;2023-11-21T08:56:12;8.30;;;3.77;;
20525;SDS011;10421;49.142;9.232;2023-11-21T08:58:40;10.03;;;3.53;;
20525;SDS011;10421;49.142;9.232;2023-11-21T09:01:07;5.07;;;3.50;;
20525;SDS011;10421;49.142;9.232;2023-11-21T09:03:34;10.17;;;4.17;;
20525;SDS011;10421;49.142;9.232;2023-11-21T09:06:01;7.83;;;3.60;;
20525;SDS011;10421;49.142;9.232;2023-11-21T09:08:28;11.07;;;3.90;;
20525;SDS011;10421;49.142;9.232;2023-11-21T09:10:55;3.97;;;2.53;;
20525;SDS011;10421;49.142;9.232;2023-11-21T09:13:22;6.63;;;3.80;;
20525;SDS011;10421;49.142;9.232;2023-11-21T09:15:51;9.27;;;3.57;;
20525;SDS011;10421;49.142;9.232;2023-11-21T09:18:18;9.77;;;3.80;;
20525;SDS011;10421;49.142;9.232;2023-11-21T09:20:45;9.53;;;3.50;;
20525;SDS011;10421;49.142;9.232;2023-11-21T09:23:11;10.87;;;4.03;;
20525;SDS011;10421;49.142;9.232;2023-11-21T09:25:38;9.90;;;3.57;;
20525;SDS011;10421;49.142;9.232;2023-11-21T09:28:05;8.27;;;3.20;;
20525;SDS011;10421;49.142;9.232;2023-11-21T09:30:33;13.30;;;4.23;;
20525;SDS011;10421;49.142;9.232;2023-11-21T09:33:01;10.23;;;3.97;;
20525;SDS011;10421;49.142;9.232;2023-11-21T09:35:30;14.17;;;4.00;;
20525;SDS011;10421;49.142;9.232;2023-11-21T09:37:57;10.50;;;4.80;;
20525;SDS011;10421;49.142;9.232;2023-11-21T09:40:23;10.43;;;4.80;;
20525;SDS011;10421;49.142;9.232;2023-11-21T09:42:53;15.50;;;5.20;;
20525;SDS011;10421;49.142;9.232;2023-11-21T09:45:24;9.97;;;4.63;;
20525;SDS011;10421;49.142;9.232;2023-11-21T09:47:52;13.03;;;4.80;;
20525;SDS011;10421;49.142;9.232;2023-11-21T09:50:22;10.03;;;3.83;;
20525;SDS011;10421;49.142;9.232;2023-11-21T09:52:53;6.03;;;3.20;;
20525;SDS011;10421;49.142;9.232;2023-11-21T09:55:22;9.53;;;3.23;;
20525;SDS011;10421;49.142;9.232;2023-11-21T09:57:53;11.20;;;3.60;;
20525;SDS011;10421;49.142;9.232;2023-11-21T10:00:22;9.23;;;2.90;;
20525;SDS011;10421;49.142;9.232;2023-11-21T10:02:49;11.20;;;2.93;;
20525;SDS011;10421;49.142;9.232;2023-11-21T10:05:18;13.13;;;4.30;;
20525;SDS011;10421;49.142;9.232;2023-11-21T10:07:46;10.27;;;3.00;;
20525;SDS011;10421;49.142;9.232;2023-11-21T10:10:13;15.00;;;4.40;;
20525;SDS011;10421;49.142;9.232;2023-11-21T10:12:44;8.33;;;2.67;;
20525;SDS011;10421;49.142;9.232;2023-11-21T10:15:16;11.20;;;3.70;;
20525;SDS011;10421;49.142;9.232;2023-11-21T10:17:43;6.97;;;2.70;;
20525;SDS011;10421;49.142;9.232;2023-11-21T10:20:11;8.03;;;3.00;;
20525;SDS011;10421;49.142;9.232;2023-11-21T10:22:38;7.23;;;2.60;;
20525;SDS011;10421;49.142;9.232;2023-11-21T10:25:08;12.67;;;4.10;;
20525;SDS011;10421;49.142;9.232;2023-11-21T10:27:36;14.33;;;6.07;;
20525;SDS011;10421;49.142;9.232;2023-11-21T10:30:04;13.00;;;4.30;;
20525;SDS011;10421;49.142;9.232;2023-11-21T10:32:37;10.80;;;3.53;;
20525;SDS011;10421;49.142;9.232;2023-11-21T10:35:05;12.53;;;4.17;;
20525;SDS011;10421;49.142;9.232;2023-11-21T10:37:35;6.93;;;3.30;;
20525;SDS011;10421;49.142;9.232;2023-11-21T10:40:04;19.73;;;4.90;;
20525;SDS011;10421;49.142;9.232;2023-11-21T10:42:33;8.83;;;3.43;;
20525;SDS011;10421;49.142;9.232;2023-11-21T10:45:00;8.93;;;3.33;;
20525;SDS011;10421;49.142;9.232;2023-11-21T10:47:28;3.30;;;2.50;;
20525;SDS011;10421;49.142;9.232;2023-11-21T10:49:56;8.37;;;3.60;;
20525;SDS011;10421;49.142;9.232;2023-11-21T10:52:26;9.93;;;3.73;;
20525;SDS011;10421;49.142;9.232;2023-11-21T10:54:54;6.37;;;2.87;;
20525;SDS011;10421;49.142;9.232;2023-11-21T10:57:20;11.10;;;3.93;;
20525;SDS011;10421;49.142;9.232;2023-11-21T10:59:50;5.23;;;3.07;;
20525;SDS011;10421;49.142;9.232;2023-11-21T11:02:21;7.63;;;3.57;;
20525;SDS011;10421;49.142;9.232;2023-11-21T11:04:53;10.00;;;3.70;;
20525;SDS011;10421;49.142;9.232;2023-11-21T11:07:21;9.43;;;3.07;;
20525;SDS011;10421;49.142;9.232;2023-11-21T11:09:52;12.60;;;3.43;;
20525;SDS011;10421;49.142;9.232;2023-11-21T11:12:19;4.20;;;1.70;;
20525;SDS011;10421;49.142;9.232;2023-11-21T11:14:46;8.53;;;2.03;;
20525;SDS011;10421;49.142;9.232;2023-11-21T11:17:17;11.00;;;2.40;;
20525;SDS011;10421;49.142;9.232;2023-11-21T11:19:45;8.23;;;2.03;;
20525;SDS011;10421;49.142;9.232;2023-11-21T11:22:16;15.97;;;2.50;;
20525;SDS011;10421;49.142;9.232;2023-11-21T11:24:56;4.27;;;1.23;;
20525;SDS011;10421;49.142;9.232;2023-11-21T11:27:40;14.77;;;2.43;;
20525;SDS011;10421;49.142;9.232;2023-11-21T11:30:20;5.80;;;1.50;;
20525;SDS011;10421;49.142;9.232;2023-11-21T11:33:04;5.60;;;1.43;;
20525;SDS011;10421;49.142;9.232;2023-11-21T11:35:39;3.90;;;1.20;;
20525;SDS011;10421;49.142;9.232;2023-11-21T11:38:14;7.60;;;1.87;;
20525;SDS011;10421;49.142;9.232;2023-11-21T11:40:44;7.77;;;1.80;;
20525;SDS011;10421;49.142;9.232;2023-11-21T11:43:12;4.00;;;1.07;;
20525;SDS011;10421;49.142;9.232;2023-11-21T11:45:41;4.33;;;1.23;;
20525;SDS011;10421;49.142;9.232;2023-11-21T11:48:13;4.43;;;1.30;;
20525;SDS011;10421;49.142;9.232;2023-11-21T11:53:32;5.57;;;1.40;;
20525;SDS011;10421;49.142;9.232;2023-11-21T11:58:50;9.20;;;2.00;;
20525;SDS011;10421;49.142;9.232;2023-11-21T12:01:19;6.90;;;1.70;;
20525;SDS011;10421;49.142;9.232;2023-11-21T12:06:59;15.83;;;3.17;;
20525;SDS011;10421;49.142;9.232;2023-11-21T12:09:28;5.63;;;1.23;;
20525;SDS011;10421;49.142;9.232;2023-11-21T12:11:56;13.13;;;2.70;;
20525;SDS011;10421;49.142;9.232;2023-11-21T12:14:23;8.23;;;1.80;;
20525;SDS011;10421;49.142;9.232;2023-11-21T12:16:51;9.30;;;1.87;;
20525;SDS011;10421;49.142;9.232;2023-11-21T12:19:19;5.23;;;1.20;;
20525;SDS011;10421;49.142;9.232;2023-11-21T12:21:47;6.43;;;1.53;;
20525;SDS011;10421;49.142;9.232;2023-11-21T12:24:15;6.80;;;1.70;;
20525;SDS011;10421;49.142;9.232;2023-11-21T12:26:42;6.67;;;1.63;;
20525;SDS011;10421;49.142;9.232;2023-11-21T12:29:10;7.23;;;1.73;;
20525;SDS011;10421;49.142;9.232;2023-11-21T12:31:36;5.43;;;1.50;;
20525;SDS011;10421;49.142;9.232;2023-11-21T12:34:05;10.47;;;2.13;;
20525;SDS011;10421;49.142;9.232;2023-11-21T12:36:32;12.73;;;2.73;;
20525;SDS011;10421;49.142;9.232;2023-11-21T12:38:59;8.93;;;2.07;;
20525;SDS011;10421;49.142;9.232;2023-11-21T12:41:27;6.03;;;1.40;;
20525;SDS011;10421;49.142;9.232;2023-11-21T12:43:55;6.13;;;1.53;;
20525;SDS011;10421;49.142;9.232;2023-11-21T12:46:22;7.03;;;2.07;;
20525;SDS011;10421;49.142;9.232;2023-11-21T12:48:51;6.80;;;2.03;;
20525;SDS011;10421;49.142;9.232;2023-11-21T12:51:19;6.10;;;1.73;;
20525;SDS011;10421;49.142;9.232;2023-11-21T12:53:47;5.87;;;1.80;;
20525;SDS011;10421;49.142;9.232;2023-11-21T12:56:14;3.30;;;1.20;;
20525;SDS011;10421;49.142;9.232;2023-11-21T12:58:44;5.83;;;1.67;;
20525;SDS011;10421;49.142;9.232;2023-11-21T13:01:12;4.37;;;1.30;;
20525;SDS011;10421;49.142;9.232;2023-11-21T13:03:44;8.97;;;2.07;;
20525;SDS011;10421;49.142;9.232;2023-11-21T13:06:14;9.90;;;2.30;;
20525;SDS011;10421;49.142;9.232;2023-11-21T13:08:43;5.90;;;1.50;;
20525;SDS011;10421;49.142;9.232;2023-11-21T13:11:11;6.70;;;1.50;;
20525;SDS011;10421;49.142;9.232;2023-11-21T13:13:39;5.70;;;1.43;;
20525;SDS011;10421;49.142;9.232;2023-11-21T13:16:07;3.67;;;1.40;;
20525;SDS011;10421;49.142;9.232;2023-11-21T13:18:35;2.60;;;1.00;;
20525;SDS011;10421;49.142;9.232;2023-11-21T13:21:02;4.63;;;1.47;;
20525;SDS011;10421;49.142;9.232;2023-11-21T13:23:35;4.43;;;1.20;;
20525;SDS011;10421;49.142;9.232;2023-11-21T13:26:04;10.37;;;2.30;;
20525;SDS011;10421;49.142;9.232;2023-11-21T13:28:31;3.40;;;1.03;;
20525;SDS011;10421;49.142;9.232;2023-11-21T13:30:59;17.40;;;3.40;;
20525;SDS011;10421;49.142;9.232;2023-11-21T13:33:29;4.23;;;1.10;;
20525;SDS011;10421;49.142;9.232;2023-11-21T13:35:58;7.13;;;1.77;;
20525;SDS011;10421;49.142;9.232;2023-11-21T13:38:26;4.60;;;1.53;;
20525;SDS011;10421;49.142;9.232;2023-11-21T13:40:58;6.37;;;1.57;;
20525;SDS011;10421;49.142;9.232;2023-11-21T13:43:26;8.70;;;1.50;;
20525;SDS011;10421;49.142;9.232;2023-11-21T13:45:53;6.03;;;1.83;;
20525;SDS011;10421;49.142;9.232;2023-11-21T13:48:25;6.40;;;1.80;;
20525;SDS011;10421;49.142;9.232;2023-11-21T13:50:57;7.10;;;2.10;;
20525;SDS011;10421;49.142;9.232;2023-11-21T13:53:30;5.10;;;1.83;;
20525;SDS011;10421;49.142;9.232;2023-11-21T13:55:58;5.70;;;1.70;;
20525;SDS011;10421;49.142;9.232;2023-11-21T13:58:26;4.50;;;1.37;;
20525;SDS011;10421;49.142;9.232;2023-11-21T14:01:06;7.33;;;1.93;;
20525;SDS011;10421;49.142;9.232;2023-11-21T14:03:41;9.13;;;2.90;;
20525;SDS011;10421;49.142;9.232;2023-11-21T14:06:16;9.60;;;2.10;;
20525;SDS011;10421;49.142;9.232;2023-11-21T14:08:49;9.03;;;2.30;;
20525;SDS011;10421;49.142;9.232;2023-11-21T14:11:16;9.53;;;2.17;;
20525;SDS011;10421;49.142;9.232;2023-11-21T14:13:45;8.30;;;2.30;;
20525;SDS011;10421;49.142;9.232;2023-11-21T14:16:13;10.83;;;2.60;;
20525;SDS011;10421;49.142;9.232;2023-11-21T14:18:41;7.60;;;2.13;;
20525;SDS011;10421;49.142;9.232;2023-11-21T14:21:17;7.63;;;2.40;;
20525;SDS011;10421;49.142;9.232;2023-11-21T14:23:44;9.43;;;2.77;;
20525;SDS011;10421;49.142;9.232;2023-11-21T14:26:11;13.60;;;4.60;;
20525;SDS011;10421;49.142;9.232;2023-11-21T14:28:39;9.43;;;3.30;;
20525;SDS011;10421;49.142;9.232;2023-11-21T14:31:08;10.30;;;3.00;;
20525;SDS011;10421;49.142;9.232;2023-11-21T14:33:38;11.83;;;3.73;;
20525;SDS011;10421;49.142;9.232;2023-11-21T14:36:05;8.63;;;2.87;;
20525;SDS011;10421;49.142;9.232;2023-11-21T14:38:35;11.83;;;3.27;;
20525;SDS011;10421;49.142;9.232;2023-11-21T14:41:02;5.27;;;2.07;;
20525;SDS011;10421;49.142;9.232;2023-11-21T14:43:32;7.33;;;2.20;;
20525;SDS011;10421;49.142;9.232;2023-11-21T14:46:00;12.07;;;2.93;;
20525;SDS011;10421;49.142;9.232;2023-11-21T14:48:29;12.50;;;3.00;;
20525;SDS011;10421;49.142;9.232;2023-11-21T14:51:07;8.77;;;2.63;;
20525;SDS011;10421;49.142;9.232;2023-11-21T14:53:55;11.43;;;3.30;;
20525;SDS011;10421;49.142;9.232;2023-11-21T14:56:25;14.10;;;3.73;;